createdAt,value
2022-11-27T00:00:27.386Z,9.661374
2022-11-27T00:01:27.347Z,9.661351
2022-11-27T00:02:27.387Z,9.661458
2022-11-27T00:03:27.463Z,9.661422
2022-11-27T00:04:27.397Z,9.661402
2022-11-27T00:05:27.313Z,9.661467
2022-11-27T00:06:27.314Z,9.661585
2022-11-27T00:07:27.338Z,9.661686
2022-11-27T00:08:27.295Z,9.661756
2022-11-27T00:09:27.291Z,9.661586
2022-11-27T00:10:27.312Z,9.661582
2022-11-27T00:11:27.340Z,9.661370
2022-11-27T00:12:27.286Z,9.661476
2022-11-27T00:13:27.303Z,9.661491
2022-11-27T00:14:27.265Z,9.661469
2022-11-27T00:15:27.310Z,9.661476
2022-11-27T00:16:28.395Z,9.661385
2022-11-27T00:17:27.250Z,9.661386
2022-11-27T00:18:27.230Z,9.661482
2022-11-27T00:19:27.220Z,9.661425
2022-11-27T00:20:29.722Z,9.661345
2022-11-27T00:21:28.232Z,9.661316
2022-11-27T00:22:27.203Z,9.661401
2022-11-27T00:23:27.225Z,9.661469
2022-11-27T00:24:27.227Z,9.661454
2022-11-27T00:25:27.204Z,9.661522
2022-11-27T00:26:27.240Z,9.661662
2022-11-27T00:27:27.215Z,9.661728
2022-11-27T00:28:27.169Z,9.661553
2022-11-27T00:29:27.154Z,9.661513
2022-11-27T00:30:27.177Z,9.661393
2022-11-27T00:31:27.275Z,9.661586
2022-11-27T00:32:27.279Z,9.661500
2022-11-27T00:33:27.162Z,9.661427
2022-11-27T00:34:27.160Z,9.661577
2022-11-27T00:35:27.131Z,9.661603
2022-11-27T00:36:27.105Z,9.661581
2022-11-27T00:37:27.170Z,9.661511
2022-11-27T00:38:27.130Z,9.661527
2022-11-27T00:39:27.106Z,9.661464
2022-11-27T00:40:27.110Z,9.661616
2022-11-27T00:41:27.119Z,9.661697
2022-11-27T00:42:27.075Z,9.661506
2022-11-27T00:43:27.180Z,9.661489
2022-11-27T00:44:27.086Z,9.661514
2022-11-27T00:45:27.092Z,9.661472
2022-11-27T00:46:29.022Z,9.661489
2022-11-27T00:47:28.072Z,9.661540
2022-11-27T00:48:27.021Z,9.661551
2022-11-27T00:49:27.046Z,9.661598
2022-11-27T00:50:27.034Z,9.661843
2022-11-27T00:51:27.026Z,9.661641
2022-11-27T00:52:26.993Z,9.661511
2022-11-27T00:53:27.004Z,9.661532
2022-11-27T00:54:27.036Z,9.661551
2022-11-27T00:55:26.998Z,9.661492
2022-11-27T00:56:27.026Z,9.661319
2022-11-27T00:57:26.990Z,9.661457
2022-11-27T00:58:26.979Z,9.661517
2022-11-27T00:59:27.096Z,9.661427
2022-11-27T01:00:26.980Z,9.661263
2022-11-27T01:01:26.974Z,9.661237
2022-11-27T01:02:26.991Z,9.661417
2022-11-27T01:03:26.926Z,9.661281
2022-11-27T01:04:26.923Z,9.661295
2022-11-27T01:05:26.946Z,9.661201
2022-11-27T01:06:26.906Z,9.661317
2022-11-27T01:07:26.978Z,9.661428
2022-11-27T01:08:26.920Z,9.661431
2022-11-27T01:09:26.899Z,9.661165
2022-11-27T01:10:26.941Z,9.661292
2022-11-27T01:11:26.904Z,9.661413
2022-11-27T01:12:26.873Z,9.661340
2022-11-27T01:13:26.909Z,9.661309
2022-11-27T01:14:26.849Z,9.661411
2022-11-27T01:15:26.859Z,9.661325
2022-11-27T01:16:26.933Z,9.661487
2022-11-27T01:17:26.839Z,9.661467
2022-11-27T01:18:26.826Z,9.661499
2022-11-27T01:19:26.839Z,9.661407
2022-11-27T01:20:26.793Z,9.661387
2022-11-27T01:21:26.925Z,9.661412
2022-11-27T01:22:26.819Z,9.661366
2022-11-27T01:23:26.804Z,9.661408
2022-11-27T01:24:26.795Z,9.661384
2022-11-27T01:25:27.270Z,9.661321
2022-11-27T01:26:27.850Z,9.661337
2022-11-27T01:27:26.783Z,9.661352
2022-11-27T01:28:26.787Z,9.661326
2022-11-27T01:29:26.786Z,9.661339
2022-11-27T01:30:26.746Z,9.661383
2022-11-27T01:31:26.816Z,9.661431
2022-11-27T01:32:26.778Z,9.661405
2022-11-27T01:33:26.740Z,9.661466
2022-11-27T01:34:26.756Z,9.661412
2022-11-27T01:35:26.710Z,9.661476
2022-11-27T01:36:26.711Z,9.661476
2022-11-27T01:37:26.761Z,9.661400
2022-11-27T01:38:26.726Z,9.661426
2022-11-27T01:39:26.702Z,9.661448
2022-11-27T01:40:26.683Z,9.661570
2022-11-27T01:41:26.677Z,9.661624
2022-11-27T01:42:26.650Z,9.661557
2022-11-27T01:43:26.703Z,9.661488
2022-11-27T01:44:26.664Z,9.661498
2022-11-27T01:45:26.699Z,9.661507
2022-11-27T01:46:26.714Z,9.661503
2022-11-27T01:47:26.656Z,9.661415
2022-11-27T01:48:26.656Z,9.661325
2022-11-27T01:49:26.607Z,9.661238
2022-11-27T01:50:26.612Z,9.661407
2022-11-27T01:51:26.649Z,9.661633
2022-11-27T01:52:26.612Z,9.661821
2022-11-27T01:53:26.632Z,9.661867
2022-11-27T01:54:26.666Z,9.662135
2022-11-27T01:55:26.623Z,9.662106
2022-11-27T01:56:26.607Z,9.662281
2022-11-27T01:57:26.611Z,9.661851
2022-11-27T01:58:26.578Z,9.661777
2022-11-27T01:59:26.641Z,9.661010
2022-11-27T02:00:26.556Z,9.660614
2022-11-27T02:01:26.621Z,9.659857
2022-11-27T02:02:26.613Z,9.659615
2022-11-27T02:03:26.616Z,9.659977
2022-11-27T02:04:26.559Z,9.661479
2022-11-27T02:05:26.569Z,9.661726
2022-11-27T02:06:26.516Z,9.661690
2022-11-27T02:07:26.627Z,9.661599
2022-11-27T02:08:26.513Z,9.661755
2022-11-27T02:09:26.542Z,9.661910
2022-11-27T02:10:26.523Z,9.662162
2022-11-27T02:11:26.528Z,9.662019
2022-11-27T02:12:26.498Z,9.661846
2022-11-27T02:13:26.500Z,9.661679
2022-11-27T02:14:26.483Z,9.661551
2022-11-27T02:15:26.457Z,9.661533
2022-11-27T02:16:26.594Z,9.661455
2022-11-27T02:17:26.436Z,9.661390
2022-11-27T02:18:26.459Z,9.661523
2022-11-27T02:19:26.423Z,9.661483
2022-11-27T02:20:26.469Z,9.661529
2022-11-27T02:21:26.475Z,9.661640
2022-11-27T02:22:26.429Z,9.661654
2022-11-27T02:23:26.461Z,9.661747
2022-11-27T02:24:26.452Z,9.661564
2022-11-27T02:25:28.440Z,9.661551
2022-11-27T02:26:26.416Z,9.661841
2022-11-27T02:27:26.515Z,9.661873
2022-11-27T02:28:26.422Z,9.661683
2022-11-27T02:29:26.427Z,9.661572
2022-11-27T02:30:26.408Z,9.661545
2022-11-27T02:31:26.440Z,9.661660
2022-11-27T02:32:26.437Z,9.661481
2022-11-27T02:33:26.372Z,9.661438
2022-11-27T02:34:26.365Z,9.661442
2022-11-27T02:35:26.365Z,9.661562
2022-11-27T02:36:26.367Z,9.661386
2022-11-27T02:37:26.390Z,9.661484
2022-11-27T02:38:26.469Z,9.661516
2022-11-27T02:39:26.371Z,9.661558
2022-11-27T02:40:26.335Z,9.661371
2022-11-27T02:41:26.326Z,9.661376
2022-11-27T02:42:26.401Z,9.661406
2022-11-27T02:43:26.391Z,9.661540
2022-11-27T02:44:26.326Z,9.661457
2022-11-27T02:45:26.309Z,9.661522
2022-11-27T02:46:26.384Z,9.661494
2022-11-27T02:47:26.296Z,9.661415
2022-11-27T02:48:26.296Z,9.661348
2022-11-27T02:49:26.435Z,9.661300
2022-11-27T02:50:26.337Z,9.661251
2022-11-27T02:51:26.293Z,9.661572
2022-11-27T02:52:26.238Z,9.661509
2022-11-27T02:53:26.269Z,9.661521
2022-11-27T02:54:26.272Z,9.661451
2022-11-27T02:55:26.295Z,9.661582
2022-11-27T02:56:26.281Z,9.661814
2022-11-27T02:57:26.254Z,9.661639
2022-11-27T02:58:26.331Z,9.661652
2022-11-27T02:59:26.251Z,9.661691
2022-11-27T03:00:26.366Z,9.661546
2022-11-27T03:01:26.248Z,9.661677
2022-11-27T03:02:26.249Z,9.661643
2022-11-27T03:03:26.219Z,9.661563
2022-11-27T03:04:26.239Z,9.661646
2022-11-27T03:05:26.250Z,9.661648
2022-11-27T03:06:26.253Z,9.661566
2022-11-27T03:07:26.222Z,9.661580
2022-11-27T03:08:26.206Z,9.661611
2022-11-27T03:09:26.219Z,9.661684
2022-11-27T03:10:26.212Z,9.661795
2022-11-27T03:11:26.223Z,9.661550
2022-11-27T03:12:26.185Z,9.661418
2022-11-27T03:13:26.205Z,9.661451
2022-11-27T03:14:26.264Z,9.661571
2022-11-27T03:15:26.156Z,9.661613
2022-11-27T03:16:26.327Z,9.661562
2022-11-27T03:17:26.162Z,9.661608
2022-11-27T03:18:26.174Z,9.661492
2022-11-27T03:19:26.116Z,9.661468
2022-11-27T03:20:26.119Z,9.661310
2022-11-27T03:21:26.135Z,9.661374
2022-11-27T03:22:26.158Z,9.661437
2022-11-27T03:23:26.120Z,9.661491
2022-11-27T03:24:26.103Z,9.661413
2022-11-27T03:25:26.122Z,9.661523
2022-11-27T03:26:26.148Z,9.661542
2022-11-27T03:27:26.154Z,9.661685
2022-11-27T03:28:26.126Z,9.661662
2022-11-27T03:29:26.107Z,9.661731
2022-11-27T03:30:26.159Z,9.661629
2022-11-27T03:31:26.130Z,9.661601
2022-11-27T03:32:26.045Z,9.661644
2022-11-27T03:33:26.189Z,9.661641
2022-11-27T03:34:26.082Z,9.661474
2022-11-27T03:35:26.104Z,9.661619
2022-11-27T03:36:26.061Z,9.661637
2022-11-27T03:37:26.089Z,9.661676
2022-11-27T03:38:26.245Z,9.661775
2022-11-27T03:39:26.030Z,9.661703
2022-11-27T03:40:26.052Z,9.661601
2022-11-27T03:41:26.051Z,9.661528
2022-11-27T03:42:26.024Z,9.661607
2022-11-27T03:43:26.025Z,9.661519
2022-11-27T03:44:26.025Z,9.661486
2022-11-27T03:45:26.025Z,9.661769
2022-11-27T03:46:26.152Z,9.661608
2022-11-27T03:47:26.088Z,9.661593
2022-11-27T03:48:26.015Z,9.661725
2022-11-27T03:49:26.021Z,9.661658
2022-11-27T03:50:25.979Z,9.661624
2022-11-27T03:51:26.015Z,9.661816
2022-11-27T03:52:25.982Z,9.661886
2022-11-27T03:53:25.943Z,9.661585
2022-11-27T03:54:25.944Z,9.661622
2022-11-27T03:55:26.084Z,9.661963
2022-11-27T03:56:25.938Z,9.661584
2022-11-27T03:57:25.950Z,9.661652
2022-11-27T03:58:25.982Z,9.661757
2022-11-27T03:59:25.930Z,9.661833
2022-11-27T04:00:25.998Z,9.661794
2022-11-27T04:01:25.948Z,9.661568
2022-11-27T04:02:25.985Z,9.661578
2022-11-27T04:03:26.011Z,9.661511
2022-11-27T04:04:25.907Z,9.661500
2022-11-27T04:05:25.937Z,9.661611
2022-11-27T04:06:25.933Z,9.661650
2022-11-27T04:07:25.917Z,9.661504
2022-11-27T04:08:25.890Z,9.661435
2022-11-27T04:09:25.876Z,9.661347
2022-11-27T04:10:25.866Z,9.661487
2022-11-27T04:11:25.907Z,9.661456
2022-11-27T04:12:25.895Z,9.661383
2022-11-27T04:13:25.859Z,9.661576
2022-11-27T04:14:25.864Z,9.661447
2022-11-27T04:15:25.854Z,9.661605
2022-11-27T04:16:25.938Z,9.661726
2022-11-27T04:17:25.827Z,9.661599
2022-11-27T04:18:25.898Z,9.661706
2022-11-27T04:19:25.816Z,9.661802
2022-11-27T04:20:25.836Z,9.661741
2022-11-27T04:21:25.832Z,9.661814
2022-11-27T04:22:25.822Z,9.661869
2022-11-27T04:23:25.768Z,9.661942
2022-11-27T04:24:25.793Z,9.661736
2022-11-27T04:25:25.773Z,9.661570
2022-11-27T04:26:25.817Z,9.661617
2022-11-27T04:27:25.763Z,9.661626
2022-11-27T04:28:25.797Z,9.661558
2022-11-27T04:29:25.776Z,9.661801
2022-11-27T04:30:25.746Z,9.661588
2022-11-27T04:31:25.796Z,9.661674
2022-11-27T04:32:25.740Z,9.661773
2022-11-27T04:33:25.790Z,9.661638
2022-11-27T04:34:25.804Z,9.661298
2022-11-27T04:35:25.737Z,9.661249
2022-11-27T04:36:25.704Z,9.661539
2022-11-27T04:37:25.725Z,9.661801
2022-11-27T04:38:25.732Z,9.661742
2022-11-27T04:39:25.762Z,9.661555
2022-11-27T04:40:25.680Z,9.661590
2022-11-27T04:41:26.719Z,9.661533
2022-11-27T04:42:25.693Z,9.661597
2022-11-27T04:43:25.698Z,9.661488
2022-11-27T04:44:25.728Z,9.661474
2022-11-27T04:45:25.682Z,9.661397
2022-11-27T04:46:25.711Z,9.661573
2022-11-27T04:47:25.667Z,9.661545
2022-11-27T04:48:25.635Z,9.661507
2022-11-27T04:49:25.638Z,9.661518
2022-11-27T04:50:25.747Z,9.661427
2022-11-27T04:51:25.673Z,9.661567
2022-11-27T04:52:25.633Z,9.661780
2022-11-27T04:53:25.651Z,9.661510
2022-11-27T04:54:25.647Z,9.661663
2022-11-27T04:55:25.629Z,9.661621
2022-11-27T04:56:25.592Z,9.661784
2022-11-27T04:57:25.589Z,9.661761
2022-11-27T04:58:25.573Z,9.661634
2022-11-27T04:59:58.363Z,9.661489
2022-11-27T05:00:25.657Z,9.661430
2022-11-27T05:01:25.670Z,9.661602
2022-11-27T05:02:25.635Z,9.661600
2022-11-27T05:03:25.595Z,9.661743
2022-11-27T05:04:25.567Z,9.661760
2022-11-27T05:05:25.586Z,9.661557
2022-11-27T05:06:25.708Z,9.661564
2022-11-27T05:07:26.620Z,9.661478
2022-11-27T05:08:25.539Z,9.661448
2022-11-27T05:09:25.524Z,9.661524
2022-11-27T05:10:25.515Z,9.661471
2022-11-27T05:11:25.520Z,9.661559
2022-11-27T05:12:26.642Z,9.661587
2022-11-27T05:13:25.565Z,9.661445
2022-11-27T05:14:25.511Z,9.661680
2022-11-27T05:15:25.539Z,9.661635
2022-11-27T05:16:25.541Z,9.661504
2022-11-27T05:17:25.502Z,9.661880
2022-11-27T05:18:25.608Z,9.662123
2022-11-27T05:19:25.486Z,9.661702
2022-11-27T05:20:25.495Z,9.661632
2022-11-27T05:21:25.495Z,9.661423
2022-11-27T05:22:25.553Z,9.661548
2022-11-27T05:23:25.483Z,9.661679
2022-11-27T05:24:25.473Z,9.661914
2022-11-27T05:25:25.456Z,9.661621
2022-11-27T05:26:25.453Z,9.661887
2022-11-27T05:27:25.423Z,9.661764
2022-11-27T05:28:27.072Z,9.661784
2022-11-27T05:29:26.593Z,9.661879
2022-11-27T05:30:25.406Z,9.661712
2022-11-27T05:31:25.502Z,9.661779
2022-11-27T05:32:25.397Z,9.661688
2022-11-27T05:33:25.431Z,9.661607
2022-11-27T05:34:25.366Z,9.661354
2022-11-27T05:35:25.423Z,9.661542
2022-11-27T05:36:25.375Z,9.661676
2022-11-27T05:37:25.377Z,9.661624
2022-11-27T05:38:25.456Z,9.661565
2022-11-27T05:39:25.366Z,9.661622
2022-11-27T05:40:25.406Z,9.661452
2022-11-27T05:41:25.357Z,9.661557
2022-11-27T05:42:25.360Z,9.661511
2022-11-27T05:43:25.348Z,9.661497
2022-11-27T05:44:25.343Z,9.661624
2022-11-27T05:45:25.309Z,9.661558
2022-11-27T05:46:25.425Z,9.661500
2022-11-27T05:47:25.324Z,9.661549
2022-11-27T05:48:25.346Z,9.661538
2022-11-27T05:49:25.336Z,9.661482
2022-11-27T05:50:25.286Z,9.661510
2022-11-27T05:51:25.360Z,9.661519
2022-11-27T05:52:25.294Z,9.661558
2022-11-27T05:53:25.297Z,9.661484
2022-11-27T05:54:25.361Z,9.661519
2022-11-27T05:55:25.259Z,9.661493
2022-11-27T05:56:25.289Z,9.661531
2022-11-27T05:57:25.267Z,9.661544
2022-11-27T05:58:25.259Z,9.661574
2022-11-27T05:59:25.263Z,9.661530
2022-11-27T06:00:25.240Z,9.661607
2022-11-27T06:01:25.239Z,9.661520
2022-11-27T06:02:29.377Z,9.661548
2022-11-27T06:03:26.321Z,9.661570
2022-11-27T06:04:26.211Z,9.661518
2022-11-27T06:05:25.212Z,9.661659
2022-11-27T06:06:25.215Z,9.661546
2022-11-27T06:07:25.268Z,9.661545
2022-11-27T06:08:25.345Z,9.661445
2022-11-27T06:09:25.196Z,9.661633
2022-11-27T06:10:25.275Z,9.661568
2022-11-27T06:11:25.159Z,9.661484
2022-11-27T06:12:25.166Z,9.661659
2022-11-27T06:13:25.324Z,9.661551
2022-11-27T06:14:25.158Z,9.661571
2022-11-27T06:15:25.159Z,9.661586
2022-11-27T06:16:25.179Z,9.661551
2022-11-27T06:17:25.173Z,9.661575
2022-11-27T06:18:25.144Z,9.661592
2022-11-27T06:19:25.143Z,9.661549
2022-11-27T06:20:25.129Z,9.661483
2022-11-27T06:21:25.108Z,9.661588
2022-11-27T06:22:25.107Z,9.661632
2022-11-27T06:23:25.140Z,9.661574
2022-11-27T06:24:25.199Z,9.661503
2022-11-27T06:25:25.090Z,9.661525
2022-11-27T06:26:25.179Z,9.661622
2022-11-27T06:27:25.122Z,9.661571
2022-11-27T06:28:25.111Z,9.661581
2022-11-27T06:29:25.098Z,9.661650
2022-11-27T06:30:25.119Z,9.662053
2022-11-27T06:31:25.175Z,9.661579
2022-11-27T06:32:25.077Z,9.661716
2022-11-27T06:33:25.045Z,9.661710
2022-11-27T06:34:25.027Z,9.661625
2022-11-27T06:35:25.072Z,9.661747
2022-11-27T06:36:25.072Z,9.661757
2022-11-27T06:37:25.049Z,9.661800
2022-11-27T06:38:25.013Z,9.661504
2022-11-27T06:39:25.017Z,9.661562
2022-11-27T06:40:25.027Z,9.661579
2022-11-27T06:41:25.126Z,9.661704
2022-11-27T06:42:25.085Z,9.661686
2022-11-27T06:43:24.976Z,9.661656
2022-11-27T06:44:25.004Z,9.661730
2022-11-27T06:45:25.019Z,9.661717
2022-11-27T06:46:25.032Z,9.661765
2022-11-27T06:47:24.970Z,9.661666
2022-11-27T06:48:24.975Z,9.661591
2022-11-27T06:49:24.997Z,9.661612
2022-11-27T06:50:25.022Z,9.661579
2022-11-27T06:51:24.992Z,9.661574
2022-11-27T06:52:25.033Z,9.661668
2022-11-27T06:53:24.985Z,9.661652
2022-11-27T06:54:24.949Z,9.661686
2022-11-27T06:55:24.953Z,9.661795
2022-11-27T06:56:24.944Z,9.661677
2022-11-27T06:57:24.990Z,9.661638
2022-11-27T06:58:30.734Z,9.661652
2022-11-27T06:59:26.906Z,9.661624
2022-11-27T07:00:24.915Z,9.661746
2022-11-27T07:01:25.950Z,9.661644
2022-11-27T07:02:24.933Z,9.661652
2022-11-27T07:03:24.978Z,9.661615
2022-11-27T07:04:24.923Z,9.661662
2022-11-27T07:05:24.858Z,9.661561
2022-11-27T07:06:24.910Z,9.661542
2022-11-27T07:07:24.941Z,9.661651
2022-11-27T07:08:24.879Z,9.661827
2022-11-27T07:09:24.879Z,9.661908
2022-11-27T07:10:24.896Z,9.661843
2022-11-27T07:11:24.904Z,9.661797
2022-11-27T07:12:24.858Z,9.661700
2022-11-27T07:13:24.841Z,9.661725
2022-11-27T07:14:24.980Z,9.661765
2022-11-27T07:15:24.847Z,9.661817
2022-11-27T07:16:24.938Z,9.661643
2022-11-27T07:17:24.849Z,9.661570
2022-11-27T07:18:24.815Z,9.661466
2022-11-27T07:19:24.872Z,9.661583
2022-11-27T07:20:24.903Z,9.661640
2022-11-27T07:21:24.817Z,9.661619
2022-11-27T07:22:24.827Z,9.661704
2022-11-27T07:23:24.847Z,9.661619
2022-11-27T07:24:24.760Z,9.661518
2022-11-27T07:25:24.816Z,9.661553
2022-11-27T07:26:25.354Z,9.661586
2022-11-27T07:27:24.747Z,9.661549
2022-11-27T07:28:24.808Z,9.661631
2022-11-27T07:29:24.753Z,9.661817
2022-11-27T07:30:25.000Z,9.662010
2022-11-27T07:31:24.862Z,9.661738
2022-11-27T07:32:24.797Z,9.661600
2022-11-27T07:33:24.756Z,9.661643
2022-11-27T07:34:24.812Z,9.661549
2022-11-27T07:35:24.699Z,9.661654
2022-11-27T07:36:24.879Z,9.661782
2022-11-27T07:37:24.702Z,9.661533
2022-11-27T07:38:24.670Z,9.661364
2022-11-27T07:39:46.227Z,9.661557
2022-11-27T07:40:24.746Z,9.661556
2022-11-27T07:41:29.192Z,9.661622
2022-11-27T07:42:40.904Z,9.661483
2022-11-27T07:43:26.708Z,9.661521
2022-11-27T07:44:24.697Z,9.661564
2022-11-27T07:45:24.750Z,9.661598
2022-11-27T07:46:24.732Z,9.661505
2022-11-27T07:47:25.709Z,9.661410
2022-11-27T07:48:24.664Z,9.661424
2022-11-27T07:49:24.639Z,9.661420
2022-11-27T07:50:24.621Z,9.661456
2022-11-27T07:51:24.641Z,9.661448
2022-11-27T07:52:24.678Z,9.661398
2022-11-27T07:53:24.612Z,9.661560
2022-11-27T07:54:24.624Z,9.661544
2022-11-27T07:55:24.652Z,9.661449
2022-11-27T07:56:24.604Z,9.661457
2022-11-27T07:57:24.641Z,9.661447
2022-11-27T07:58:24.617Z,9.661394
2022-11-27T07:59:24.635Z,9.661533
2022-11-27T08:00:24.588Z,9.661567
2022-11-27T08:01:24.636Z,9.661572
2022-11-27T08:02:24.715Z,9.661557
2022-11-27T08:03:24.590Z,9.661473
2022-11-27T08:04:24.621Z,9.661386
2022-11-27T08:05:24.649Z,9.661431
2022-11-27T08:06:24.591Z,9.661463
2022-11-27T08:07:24.690Z,9.661394
2022-11-27T08:08:24.591Z,9.661382
2022-11-27T08:09:24.554Z,9.661427
2022-11-27T08:10:24.550Z,9.661347
2022-11-27T08:11:24.535Z,9.661288
2022-11-27T08:12:24.575Z,9.661321
2022-11-27T08:13:24.540Z,9.661322
2022-11-27T08:14:24.552Z,9.661322
2022-11-27T08:15:24.516Z,9.661304
2022-11-27T08:16:24.568Z,9.661336
2022-11-27T08:17:25.374Z,9.661359
2022-11-27T08:18:24.621Z,9.661317
2022-11-27T08:19:24.540Z,9.661369
2022-11-27T08:20:24.501Z,9.661582
2022-11-27T08:21:25.372Z,9.661394
2022-11-27T08:22:24.512Z,9.661292
2022-11-27T08:23:24.497Z,9.661066
2022-11-27T08:24:24.481Z,9.661555
2022-11-27T08:25:24.452Z,9.661529
2022-11-27T08:26:24.492Z,9.661472
2022-11-27T08:27:24.499Z,9.661431
2022-11-27T08:28:24.442Z,9.661453
2022-11-27T08:29:24.477Z,9.661325
2022-11-27T08:30:24.457Z,9.661620
2022-11-27T08:31:24.509Z,9.661527
2022-11-27T08:32:24.475Z,9.661571
2022-11-27T08:33:24.453Z,9.661396
2022-11-27T08:34:24.503Z,9.661347
2022-11-27T08:35:24.426Z,9.661414
2022-11-27T08:36:24.412Z,9.661534
2022-11-27T08:37:24.444Z,9.661457
2022-11-27T08:38:24.403Z,9.661528
2022-11-27T08:39:24.425Z,9.661540
2022-11-27T08:40:24.446Z,9.661527
2022-11-27T08:41:24.430Z,9.661590
2022-11-27T08:42:24.420Z,9.661537
2022-11-27T08:43:24.399Z,9.661419
2022-11-27T08:44:24.427Z,9.661460
2022-11-27T08:45:24.358Z,9.661423
2022-11-27T08:46:24.332Z,9.661481
2022-11-27T08:47:24.371Z,9.661422
2022-11-27T08:48:24.375Z,9.661409
2022-11-27T08:49:24.329Z,9.661436
2022-11-27T08:50:24.473Z,9.661406
2022-11-27T08:51:24.292Z,9.661462
2022-11-27T08:52:24.347Z,9.661450
2022-11-27T08:53:24.340Z,9.661540
2022-11-27T08:54:24.323Z,9.661439
2022-11-27T08:55:24.305Z,9.661359
2022-11-27T08:56:24.336Z,9.661477
2022-11-27T08:57:24.297Z,9.661586
2022-11-27T08:58:24.279Z,9.661336
2022-11-27T08:59:24.252Z,9.661377
2022-11-27T09:00:27.865Z,9.661411
2022-11-27T09:01:24.293Z,9.661560
2022-11-27T09:02:24.249Z,9.661711
2022-11-27T09:03:24.309Z,9.661528
2022-11-27T09:04:24.325Z,9.661710
2022-11-27T09:05:24.217Z,9.661556
2022-11-27T09:06:24.296Z,9.661591
2022-11-27T09:07:24.374Z,9.661499
2022-11-27T09:08:24.259Z,9.661588
2022-11-27T09:09:24.211Z,9.661492
2022-11-27T09:10:24.319Z,9.661518
2022-11-27T09:11:24.190Z,9.661575
2022-11-27T09:12:24.225Z,9.661574
2022-11-27T09:13:24.197Z,9.661507
2022-11-27T09:14:24.194Z,9.661563
2022-11-27T09:15:24.216Z,9.661667
2022-11-27T09:16:24.215Z,9.661539
2022-11-27T09:17:24.157Z,9.661634
2022-11-27T09:18:24.297Z,9.661641
2022-11-27T09:19:24.154Z,9.661690
2022-11-27T09:20:24.171Z,9.661609
2022-11-27T09:21:24.140Z,9.661530
2022-11-27T09:22:24.219Z,9.661393
2022-11-27T09:23:24.151Z,9.661530
2022-11-27T09:24:24.103Z,9.661660
2022-11-27T09:25:24.076Z,9.661505
2022-11-27T09:26:24.138Z,9.661529
2022-11-27T09:27:24.120Z,9.661471
2022-11-27T09:28:28.177Z,9.661612
2022-11-27T09:29:24.092Z,9.661530
2022-11-27T09:30:24.100Z,9.661338
2022-11-27T09:31:24.148Z,9.661646
2022-11-27T09:32:24.161Z,9.661787
2022-11-27T09:33:24.035Z,9.661756
2022-11-27T09:34:24.065Z,9.661645
2022-11-27T09:35:24.177Z,9.661810
2022-11-27T09:36:24.074Z,9.661534
2022-11-27T09:37:24.039Z,9.661595
2022-11-27T09:38:24.108Z,9.661420
2022-11-27T09:39:23.985Z,9.661654
2022-11-27T09:40:24.044Z,9.662282
2022-11-27T09:41:24.008Z,9.662051
2022-11-27T09:42:23.998Z,9.662053
2022-11-27T09:43:24.002Z,9.661482
2022-11-27T09:44:23.990Z,9.661716
2022-11-27T09:45:24.071Z,9.661768
2022-11-27T09:46:24.013Z,9.661869
2022-11-27T09:47:23.963Z,9.661754
2022-11-27T09:48:23.906Z,9.661441
2022-11-27T09:49:23.957Z,9.661604
2022-11-27T09:50:23.942Z,9.661910
2022-11-27T09:51:24.076Z,9.661966
2022-11-27T09:52:23.892Z,9.661543
2022-11-27T09:53:23.947Z,9.661198
2022-11-27T09:54:24.023Z,9.661183
2022-11-27T09:55:23.913Z,9.661531
2022-11-27T09:56:23.938Z,9.661691
2022-11-27T09:57:23.887Z,9.661649
2022-11-27T09:58:23.887Z,9.662076
2022-11-27T09:59:23.907Z,9.661970
2022-11-27T10:00:23.909Z,9.662159
2022-11-27T10:01:28.588Z,9.661836
2022-11-27T10:02:24.037Z,9.662087
2022-11-27T10:03:23.962Z,9.661789
2022-11-27T10:04:23.849Z,9.661525
2022-11-27T10:05:23.883Z,9.661965
2022-11-27T10:06:23.822Z,9.661709
2022-11-27T10:07:23.921Z,9.661960
2022-11-27T10:08:23.851Z,9.661562
2022-11-27T10:09:23.795Z,9.661635
2022-11-27T10:10:23.912Z,9.661749
2022-11-27T10:11:23.783Z,9.661919
2022-11-27T10:12:23.800Z,9.661841
2022-11-27T10:13:23.777Z,9.661876
2022-11-27T10:14:23.805Z,9.661757
2022-11-27T10:15:23.805Z,9.661694
2022-11-27T10:16:23.829Z,9.661765
2022-11-27T10:17:23.748Z,9.661735
2022-11-27T10:18:23.879Z,9.661796
2022-11-27T10:19:23.767Z,9.661901
2022-11-27T10:20:23.757Z,9.661880
2022-11-27T10:21:23.764Z,9.661943
2022-11-27T10:22:23.724Z,9.661994
2022-11-27T10:23:23.739Z,9.662119
2022-11-27T10:24:23.770Z,9.662128
2022-11-27T10:25:23.695Z,9.661900
2022-11-27T10:26:23.790Z,9.661893
2022-11-27T10:27:23.725Z,9.661800
2022-11-27T10:28:23.725Z,9.661851
2022-11-27T10:29:23.772Z,9.661712
2022-11-27T10:30:23.658Z,9.661968
2022-11-27T10:31:23.749Z,9.662218
2022-11-27T10:32:53.443Z,9.662068
2022-11-27T10:33:25.646Z,9.661832
2022-11-27T10:34:23.673Z,9.661700
2022-11-27T10:35:23.717Z,9.661125
2022-11-27T10:36:23.655Z,9.660890
2022-11-27T10:37:23.652Z,9.660276
2022-11-27T10:38:23.610Z,9.659881
2022-11-27T10:39:23.577Z,9.659294
2022-11-27T10:40:23.730Z,9.658800
2022-11-27T10:42:24.700Z,9.658234
2022-11-27T10:43:23.614Z,9.658831
2022-11-27T10:44:23.557Z,9.659787
2022-11-27T10:45:23.601Z,9.660822
2022-11-27T10:46:23.607Z,9.661517
2022-11-27T10:47:23.559Z,9.661836
2022-11-27T10:48:23.564Z,9.662120
2022-11-27T10:49:23.544Z,9.662114
2022-11-27T10:50:23.533Z,9.662114
2022-11-27T10:51:23.656Z,9.661932
2022-11-27T10:52:23.531Z,9.661957
2022-11-27T10:53:23.540Z,9.661957
2022-11-27T10:54:23.556Z,9.661957
2022-11-27T10:55:23.498Z,9.661957
2022-11-27T10:56:23.508Z,9.661957
2022-11-27T10:57:23.652Z,9.661957
2022-11-27T10:58:23.556Z,9.661789
2022-11-27T10:59:23.480Z,9.661702
2022-11-27T11:00:57.504Z,9.661806
2022-11-27T11:01:23.567Z,9.661738
2022-11-27T11:02:23.627Z,9.661442
2022-11-27T11:03:23.465Z,9.661485
2022-11-27T11:04:39.328Z,9.661551
2022-11-27T11:06:25.621Z,9.661595
2022-11-27T11:07:23.527Z,9.661525
2022-11-27T11:08:23.443Z,9.661505
2022-11-27T11:09:23.420Z,9.661529
2022-11-27T11:10:23.445Z,9.661541
2022-11-27T11:11:23.384Z,9.661567
2022-11-27T11:12:23.403Z,9.661523
2022-11-27T11:13:23.443Z,9.661423
2022-11-27T11:14:23.492Z,9.661298
2022-11-27T11:15:23.396Z,9.661470
2022-11-27T11:16:24.510Z,9.661442
2022-11-27T11:17:24.485Z,9.661350
2022-11-27T11:18:23.377Z,9.661288
2022-11-27T11:19:23.476Z,9.661320
2022-11-27T11:20:23.370Z,9.661070
2022-11-27T11:21:23.384Z,9.660932
2022-11-27T11:22:23.368Z,9.660974
2022-11-27T11:23:23.368Z,9.661032
2022-11-27T11:24:23.344Z,9.661156
2022-11-27T11:25:23.354Z,9.661172
2022-11-27T11:26:23.306Z,9.661502
2022-11-27T11:27:23.337Z,9.661418
2022-11-27T11:28:23.319Z,9.661309
2022-11-27T11:29:23.271Z,9.661258
2022-11-27T11:30:23.496Z,9.661156
2022-11-27T11:31:23.392Z,9.660905
2022-11-27T11:32:23.304Z,9.660764
2022-11-27T11:33:23.265Z,9.660821
2022-11-27T11:34:23.289Z,9.660978
2022-11-27T11:35:23.291Z,9.661308
2022-11-27T11:36:23.277Z,9.661407
2022-11-27T11:37:23.243Z,9.661352
2022-11-27T11:38:23.250Z,9.661424
2022-11-27T11:39:23.262Z,9.661253
2022-11-27T11:40:23.259Z,9.661261
2022-11-27T11:41:23.357Z,9.661276
2022-11-27T11:42:23.196Z,9.661325
2022-11-27T11:43:23.256Z,9.661417
2022-11-27T11:44:23.212Z,9.661462
2022-11-27T11:45:23.181Z,9.661470
2022-11-27T11:46:23.391Z,9.661402